createdAt,value
2023-01-21T00:00:54.617Z,13.18
2023-01-21T00:03:21.377Z,10.95
2023-01-21T00:05:48.039Z,12.85
2023-01-21T00:08:14.860Z,13.93
2023-01-21T00:10:41.677Z,12.95
2023-01-21T00:13:08.599Z,12.00
2023-01-21T00:15:38.409Z,7.78
2023-01-21T00:18:05.320Z,9.85
2023-01-21T00:20:32.003Z,13.07
2023-01-21T00:22:58.854Z,5.25
2023-01-21T00:25:25.642Z,10.02
2023-01-21T00:27:52.444Z,11.55
2023-01-21T00:30:19.365Z,10.68
2023-01-21T00:32:46.187Z,10.80
2023-01-21T00:35:12.992Z,10.63
2023-01-21T00:37:40.069Z,6.63
2023-01-21T00:40:07.372Z,9.73
2023-01-21T00:42:34.048Z,5.50
2023-01-21T00:45:00.776Z,9.77
2023-01-21T00:47:28.127Z,9.30
2023-01-21T00:49:54.762Z,9.70
2023-01-21T00:52:21.460Z,9.80
2023-01-21T00:54:48.073Z,8.57
2023-01-21T00:57:14.825Z,8.07
2023-01-21T00:59:41.955Z,8.00
2023-01-21T01:02:09.514Z,9.73
2023-01-21T01:04:36.625Z,10.38
2023-01-21T01:07:03.926Z,11.30
2023-01-21T01:09:30.896Z,9.93
2023-01-21T01:11:57.633Z,11.32
2023-01-21T01:14:24.509Z,10.63
2023-01-21T01:16:51.119Z,7.30
2023-01-21T01:19:18.092Z,10.77
2023-01-21T01:21:45.134Z,10.48
2023-01-21T01:24:12.226Z,9.85
2023-01-21T01:26:41.841Z,9.73
2023-01-21T01:29:12.623Z,9.93
2023-01-21T01:31:39.768Z,10.25
2023-01-21T01:34:06.668Z,8.18
2023-01-21T01:36:33.448Z,9.57
2023-01-21T01:39:00.106Z,10.27
2023-01-21T01:41:30.160Z,9.65
2023-01-21T01:44:05.829Z,11.00
2023-01-21T01:46:36.749Z,7.53
2023-01-21T01:49:15.956Z,9.55
2023-01-21T01:51:51.734Z,8.68
2023-01-21T01:54:28.127Z,9.25
2023-01-21T01:57:00.328Z,9.40
2023-01-21T01:59:29.420Z,8.38
2023-01-21T02:01:58.981Z,9.00
2023-01-21T02:04:29.251Z,8.52
2023-01-21T02:06:57.319Z,9.00
2023-01-21T02:09:29.720Z,9.00
2023-01-21T02:11:58.588Z,9.73
2023-01-21T02:14:25.770Z,8.40
2023-01-21T02:17:17.481Z,8.93
2023-01-21T02:19:50.145Z,9.20
2023-01-21T02:22:27.517Z,6.45
2023-01-21T02:25:12.420Z,7.38
2023-01-21T02:27:54.218Z,9.18
2023-01-21T02:30:48.136Z,7.72
2023-01-21T02:33:23.892Z,7.82
2023-01-21T02:36:05.595Z,8.25
2023-01-21T02:38:52.652Z,6.85
2023-01-21T02:41:22.105Z,8.32
2023-01-21T02:44:03.549Z,9.05
2023-01-21T02:46:43.244Z,8.77
2023-01-21T02:49:18.669Z,8.68
2023-01-21T02:51:49.827Z,8.07
2023-01-21T02:54:39.003Z,6.45
2023-01-21T02:57:15.102Z,9.63
2023-01-21T02:59:46.511Z,7.75
2023-01-21T03:02:30.019Z,8.85
2023-01-21T03:05:10.159Z,8.70
2023-01-21T03:08:06.562Z,7.10
2023-01-21T03:10:44.720Z,9.57
2023-01-21T03:13:50.266Z,7.45
2023-01-21T03:16:42.627Z,9.65
2023-01-21T03:19:14.123Z,8.75
2023-01-21T03:21:41.205Z,8.00
2023-01-21T03:24:09.032Z,8.85
2023-01-21T03:26:41.228Z,6.80
2023-01-21T03:29:15.071Z,8.07
2023-01-21T03:31:45.281Z,8.40
2023-01-21T03:34:15.683Z,4.93
2023-01-21T03:36:51.781Z,9.05
2023-01-21T03:39:21.431Z,9.07
2023-01-21T03:41:48.179Z,7.80
2023-01-21T03:44:15.110Z,8.25
2023-01-21T03:47:06.570Z,9.13
2023-01-21T03:49:38.874Z,7.97
2023-01-21T03:52:06.595Z,7.60
2023-01-21T03:54:33.929Z,6.90
2023-01-21T03:57:00.640Z,7.00
2023-01-21T03:59:27.228Z,6.93
2023-01-21T04:01:54.067Z,7.75
2023-01-21T04:04:20.704Z,8.05
2023-01-21T04:06:47.291Z,9.43
2023-01-21T04:09:13.904Z,7.22
2023-01-21T04:11:40.616Z,7.43
2023-01-21T04:14:07.290Z,9.63
2023-01-21T04:16:33.939Z,9.02
2023-01-21T04:19:00.520Z,8.60
2023-01-21T04:21:27.242Z,8.32
2023-01-21T04:23:54.066Z,9.82
2023-01-21T04:26:20.648Z,10.13
2023-01-21T04:28:47.325Z,10.50
2023-01-21T04:31:13.942Z,9.93
2023-01-21T04:33:40.586Z,10.07
2023-01-21T04:36:07.449Z,10.38
2023-01-21T04:38:34.109Z,10.65
2023-01-21T04:41:00.805Z,10.07
2023-01-21T04:43:27.483Z,10.38
2023-01-21T04:45:54.317Z,11.20
2023-01-21T04:48:21.163Z,10.23
2023-01-21T04:50:47.892Z,11.60
2023-01-21T04:53:14.696Z,15.75
2023-01-21T04:55:41.320Z,13.13
2023-01-21T04:58:08.134Z,14.13
2023-01-21T05:00:34.790Z,11.93
2023-01-21T05:03:01.516Z,13.07
2023-01-21T05:05:28.198Z,11.82
2023-01-21T05:07:55.038Z,12.98
2023-01-21T05:10:21.739Z,12.30
2023-01-21T05:12:48.759Z,13.20
2023-01-21T05:15:15.604Z,13.55
2023-01-21T05:17:42.265Z,13.13
2023-01-21T05:20:09.633Z,13.90
2023-01-21T05:22:36.515Z,12.93
2023-01-21T05:25:03.287Z,12.05
2023-01-21T05:27:30.054Z,11.25
2023-01-21T05:29:57.230Z,12.75
2023-01-21T05:32:24.868Z,11.63
2023-01-21T05:34:51.445Z,12.70
2023-01-21T05:37:18.064Z,13.63
2023-01-21T05:39:44.753Z,14.10
2023-01-21T05:42:11.439Z,13.38
2023-01-21T05:44:38.373Z,13.48
2023-01-21T05:47:05.424Z,13.35
2023-01-21T05:49:32.021Z,14.45
2023-01-21T05:51:58.693Z,15.13
2023-01-21T05:54:25.329Z,16.15
2023-01-21T05:56:52.364Z,16.35
2023-01-21T05:59:19.023Z,17.35
2023-01-21T06:01:45.609Z,18.15
2023-01-21T06:04:12.407Z,19.67
2023-01-21T06:06:40.987Z,19.15
2023-01-21T06:09:07.676Z,19.95
2023-01-21T06:11:34.270Z,19.75
2023-01-21T06:14:01.039Z,20.70
2023-01-21T06:16:27.699Z,19.70
2023-01-21T06:18:54.467Z,19.67
2023-01-21T06:21:21.269Z,19.55
2023-01-21T06:23:47.919Z,19.88
2023-01-21T06:26:14.629Z,20.27
2023-01-21T06:28:41.292Z,20.08
2023-01-21T06:31:08.122Z,19.27
2023-01-21T06:33:34.941Z,18.25
2023-01-21T06:36:01.551Z,20.38
2023-01-21T06:38:28.231Z,23.08
2023-01-21T06:40:54.783Z,18.50
2023-01-21T06:43:21.416Z,19.15
2023-01-21T06:45:48.157Z,22.48
2023-01-21T06:48:14.740Z,19.90
2023-01-21T06:50:41.400Z,20.60
2023-01-21T06:53:08.010Z,21.45
2023-01-21T06:55:34.728Z,26.70
2023-01-21T06:58:01.360Z,31.65
2023-01-21T07:00:28.065Z,25.90
2023-01-21T07:02:58.836Z,24.67
2023-01-21T07:05:25.873Z,22.02
2023-01-21T07:07:56.927Z,19.98
2023-01-21T07:10:24.420Z,18.95
2023-01-21T07:12:51.587Z,18.30
2023-01-21T07:15:18.851Z,19.83
2023-01-21T07:17:46.060Z,17.33
2023-01-21T07:20:13.215Z,15.98
2023-01-21T07:22:39.924Z,15.45
2023-01-21T07:25:07.234Z,15.57
2023-01-21T07:27:33.833Z,14.70
2023-01-21T07:30:00.905Z,14.52
2023-01-21T07:32:27.528Z,13.93
2023-01-21T07:34:54.137Z,13.15
2023-01-21T07:37:20.898Z,17.45
2023-01-21T07:39:47.591Z,15.50
2023-01-21T07:42:14.173Z,15.98
2023-01-21T07:44:40.800Z,13.95
2023-01-21T07:47:07.491Z,13.35
2023-01-21T07:49:34.238Z,9.23
2023-01-21T07:52:01.130Z,5.95
2023-01-21T07:54:27.915Z,2.80
2023-01-21T07:56:54.458Z,1.50
2023-01-21T07:59:21.623Z,2.25
2023-01-21T08:01:48.380Z,2.70
2023-01-21T08:04:15.355Z,1.70
2023-01-21T08:06:42.099Z,1.48
2023-01-21T08:09:10.150Z,0.60
2023-01-21T08:11:36.766Z,0.80
2023-01-21T08:14:03.467Z,0.90
2023-01-21T08:16:30.470Z,0.77
2023-01-21T08:18:57.079Z,0.60
2023-01-21T08:21:24.881Z,2.13
2023-01-21T08:23:51.506Z,2.90
2023-01-21T08:26:18.799Z,2.20
2023-01-21T08:28:45.492Z,2.67
2023-01-21T08:31:13.301Z,2.97
2023-01-21T08:33:40.394Z,2.17
2023-01-21T08:36:08.588Z,2.65
2023-01-21T08:38:35.564Z,2.35
2023-01-21T08:41:02.271Z,2.65
2023-01-21T08:43:28.890Z,2.25
2023-01-21T08:45:57.291Z,1.10
2023-01-21T08:48:24.211Z,1.20
2023-01-21T08:50:51.024Z,1.45
2023-01-21T08:53:17.735Z,2.00
2023-01-21T08:55:44.621Z,0.98
2023-01-21T08:58:12.187Z,0.98
2023-01-21T09:00:39.130Z,1.20
2023-01-21T09:03:05.755Z,1.52
2023-01-21T09:05:32.476Z,0.85
2023-01-21T09:07:59.398Z,1.00
2023-01-21T09:10:44.331Z,0.82
2023-01-21T09:13:11.646Z,0.80
2023-01-21T09:15:44.197Z,0.90
2023-01-21T09:18:11.090Z,0.50
2023-01-21T09:20:39.006Z,0.30
2023-01-21T09:23:24.410Z,0.43
2023-01-21T09:26:01.240Z,0.40
2023-01-21T09:28:28.323Z,0.60
2023-01-21T09:31:03.884Z,0.20
2023-01-21T09:33:32.503Z,0.47
2023-01-21T09:36:01.987Z,0.30
2023-01-21T09:38:30.552Z,0.30
2023-01-21T09:41:25.161Z,0.32
2023-01-21T09:43:59.207Z,0.50
2023-01-21T09:46:40.989Z,0.40
2023-01-21T09:49:17.074Z,0.40
2023-01-21T09:52:19.344Z,0.30
2023-01-21T09:54:46.055Z,0.22
2023-01-21T09:57:22.881Z,0.20
2023-01-21T09:59:49.458Z,0.30
2023-01-21T10:02:28.010Z,0.30
2023-01-21T10:05:02.062Z,0.20
2023-01-21T10:07:38.939Z,0.30
2023-01-21T10:10:18.330Z,0.30
2023-01-21T10:13:16.297Z,0.10
2023-01-21T10:15:53.314Z,0.20
2023-01-21T10:18:26.663Z,0.20
2023-01-21T10:21:10.971Z,0.30
2023-01-21T10:24:10.918Z,0.30
2023-01-21T10:26:37.724Z,0.30
2023-01-21T10:29:04.769Z,0.20
2023-01-21T10:31:40.524Z,0.30
2023-01-21T10:34:14.412Z,0.30
2023-01-21T10:37:02.283Z,0.30
2023-01-21T10:39:47.422Z,0.20
2023-01-21T10:42:20.047Z,0.35
2023-01-21T10:45:16.243Z,0.40
2023-01-21T10:47:59.942Z,0.40
2023-01-21T10:50:48.583Z,0.40
2023-01-21T10:53:30.720Z,0.30
2023-01-21T10:56:15.736Z,0.40
2023-01-21T10:58:56.374Z,0.30
2023-01-21T11:01:28.608Z,0.28
2023-01-21T11:03:58.696Z,0.35
2023-01-21T11:06:26.525Z,0.20
2023-01-21T11:08:58.831Z,0.38
2023-01-21T11:11:31.806Z,0.40
2023-01-21T11:13:58.843Z,0.35
2023-01-21T11:16:52.337Z,0.30
2023-01-21T11:19:29.096Z,0.38
2023-01-21T11:22:14.166Z,0.30
2023-01-21T11:24:49.629Z,0.30
2023-01-21T11:27:33.053Z,0.30
2023-01-21T11:29:59.764Z,0.40
2023-01-21T11:32:28.906Z,0.30
2023-01-21T11:35:10.665Z,0.30
2023-01-21T11:37:38.317Z,0.38
2023-01-21T11:40:12.673Z,0.40
2023-01-21T11:42:54.546Z,0.30
2023-01-21T11:45:37.916Z,0.30
2023-01-21T11:48:20.977Z,0.30
2023-01-21T11:50:48.378Z,0.30
2023-01-21T11:53:17.774Z,0.30
2023-01-21T11:55:52.131Z,0.30
2023-01-21T11:58:26.600Z,0.30
2023-01-21T12:00:56.381Z,0.40
2023-01-21T12:03:28.961Z,0.30
2023-01-21T12:05:56.022Z,0.30
2023-01-21T12:08:30.068Z,0.40
2023-01-21T12:11:02.150Z,0.40
2023-01-21T12:14:04.179Z,0.38
2023-01-21T12:16:42.991Z,0.10
2023-01-21T12:19:54.088Z,0.43
2023-01-21T12:23:08.018Z,0.20
2023-01-21T12:25:44.741Z,0.20
2023-01-21T12:28:30.939Z,0.40
2023-01-21T12:31:23.995Z,0.30
2023-01-21T12:33:57.593Z,0.40
2023-01-21T12:36:34.326Z,0.30
2023-01-21T12:39:13.001Z,0.40
2023-01-21T12:41:43.365Z,0.40
2023-01-21T12:44:26.433Z,0.30
2023-01-21T12:46:59.361Z,0.40
2023-01-21T12:49:49.018Z,0.30
2023-01-21T12:52:29.016Z,0.38
2023-01-21T12:55:01.717Z,0.40
2023-01-21T12:57:41.886Z,0.30
2023-01-21T13:00:21.898Z,0.20
2023-01-21T13:03:16.255Z,0.57
2023-01-21T13:06:18.843Z,0.30
2023-01-21T13:09:07.692Z,0.40
2023-01-21T13:11:41.821Z,0.30
2023-01-21T13:14:08.606Z,0.30
2023-01-21T13:16:49.016Z,0.40
2023-01-21T13:19:16.332Z,0.40
2023-01-21T13:22:39.328Z,0.40
2023-01-21T13:25:12.011Z,0.50
2023-01-21T13:27:55.664Z,0.43
2023-01-21T13:30:49.956Z,0.70
2023-01-21T13:33:28.766Z,0.47
2023-01-21T13:35:58.208Z,0.50
2023-01-21T13:38:33.522Z,0.50
2023-01-21T13:41:03.496Z,0.40
2023-01-21T13:43:39.235Z,0.30
2023-01-21T13:46:19.028Z,0.20
2023-01-21T13:49:08.973Z,0.30
2023-01-21T13:52:15.235Z,0.30
2023-01-21T13:54:54.107Z,0.52
2023-01-21T13:57:27.020Z,0.43
2023-01-21T14:00:19.726Z,0.40
2023-01-21T14:03:01.728Z,0.20
2023-01-21T14:05:28.253Z,0.50
2023-01-21T14:08:08.334Z,0.30
2023-01-21T14:10:59.116Z,0.28
2023-01-21T14:13:43.883Z,0.68
2023-01-21T14:16:52.886Z,0.70
2023-01-21T14:19:22.248Z,0.20
2023-01-21T14:22:13.883Z,0.40
2023-01-21T14:24:40.529Z,1.30
2023-01-21T14:27:39.491Z,0.50
2023-01-21T14:30:09.229Z,0.40
2023-01-21T14:32:54.381Z,0.30
2023-01-21T14:35:52.025Z,0.30
2023-01-21T14:38:44.933Z,0.50
2023-01-21T14:41:12.445Z,0.60
2023-01-21T14:43:40.521Z,0.88
2023-01-21T14:46:34.065Z,1.17
2023-01-21T14:49:08.980Z,0.57
2023-01-21T14:51:38.702Z,0.47
2023-01-21T14:54:13.313Z,0.65
2023-01-21T14:56:40.474Z,0.90
2023-01-21T14:59:26.345Z,0.50
2023-01-21T15:02:03.893Z,0.80
2023-01-21T15:04:35.322Z,0.60
2023-01-21T15:07:08.703Z,1.10
2023-01-21T15:09:41.385Z,0.93
2023-01-21T15:12:15.787Z,0.90
2023-01-21T15:14:43.506Z,1.08
2023-01-21T15:17:48.583Z,0.88
2023-01-21T15:20:39.356Z,0.90
2023-01-21T15:23:20.099Z,1.50
2023-01-21T15:26:05.560Z,1.88
2023-01-21T15:28:55.694Z,2.80
2023-01-21T15:31:23.613Z,1.65
2023-01-21T15:34:04.270Z,2.30
2023-01-21T15:36:44.380Z,2.30
2023-01-21T15:39:48.177Z,2.42
2023-01-21T15:42:26.903Z,2.17
2023-01-21T15:45:05.638Z,2.53
2023-01-21T15:47:49.671Z,5.38
2023-01-21T15:50:36.784Z,3.90
2023-01-21T15:53:26.330Z,3.72
2023-01-21T15:56:03.719Z,1.50
2023-01-21T15:58:54.889Z,0.88
2023-01-21T16:01:37.417Z,0.60
2023-01-21T16:04:19.985Z,1.30
2023-01-21T16:07:05.082Z,0.85
2023-01-21T16:09:43.954Z,1.45
2023-01-21T16:12:20.548Z,2.45
2023-01-21T16:15:05.244Z,2.95
2023-01-21T16:17:38.165Z,4.05
2023-01-21T16:20:08.421Z,3.33
2023-01-21T16:22:39.674Z,1.88
2023-01-21T16:25:14.070Z,2.45
2023-01-21T16:27:49.570Z,3.00
2023-01-21T16:30:20.947Z,2.70
2023-01-21T16:32:49.341Z,3.50
2023-01-21T16:35:16.731Z,2.58
2023-01-21T16:37:44.372Z,2.05
2023-01-21T16:40:20.845Z,3.00
2023-01-21T16:42:47.543Z,3.17
2023-01-21T16:45:19.156Z,2.17
2023-01-21T16:47:53.223Z,2.88
2023-01-21T16:50:23.247Z,3.50
2023-01-21T16:52:50.995Z,3.45
2023-01-21T16:55:20.334Z,2.15
2023-01-21T16:57:51.776Z,2.05
2023-01-21T17:00:27.441Z,2.17
2023-01-21T17:02:55.005Z,1.10
2023-01-21T17:05:23.045Z,1.90
2023-01-21T17:07:56.199Z,1.67
2023-01-21T17:10:29.564Z,1.23
2023-01-21T17:13:01.463Z,1.30
2023-01-21T17:15:39.014Z,1.48
2023-01-21T17:18:28.691Z,1.48
2023-01-21T17:21:06.582Z,1.80
2023-01-21T17:23:43.855Z,1.90
2023-01-21T17:26:24.188Z,1.77
2023-01-21T17:29:03.385Z,1.70
2023-01-21T17:31:36.545Z,1.83
2023-01-21T17:34:07.158Z,1.20
2023-01-21T17:36:36.967Z,1.40
2023-01-21T17:39:05.524Z,1.60
2023-01-21T17:41:38.143Z,1.92
2023-01-21T17:44:15.868Z,2.55
2023-01-21T17:46:54.675Z,2.25
2023-01-21T17:49:23.949Z,2.92
2023-01-21T17:51:53.610Z,3.47
2023-01-21T17:54:26.381Z,3.47
2023-01-21T17:56:56.826Z,4.78
2023-01-21T17:59:37.763Z,5.50
2023-01-21T18:02:10.464Z,5.25
2023-01-21T18:04:37.139Z,5.82
2023-01-21T18:07:13.922Z,6.10
2023-01-21T18:09:41.954Z,5.63
2023-01-21T18:12:10.980Z,6.28
2023-01-21T18:14:37.626Z,5.47
2023-01-21T18:17:05.134Z,5.25
2023-01-21T18:19:37.543Z,11.75
2023-01-21T18:22:06.556Z,13.55
2023-01-21T18:24:33.325Z,13.50
2023-01-21T18:27:01.662Z,14.00
2023-01-21T18:29:30.601Z,12.02
2023-01-21T18:31:58.402Z,11.60
2023-01-21T18:34:25.232Z,12.27
2023-01-21T18:36:52.550Z,13.02
2023-01-21T18:39:20.561Z,10.88
2023-01-21T18:41:47.982Z,10.80
2023-01-21T18:44:15.462Z,11.40
2023-01-21T18:46:43.394Z,14.25
2023-01-21T18:49:18.510Z,12.57
2023-01-21T18:51:46.113Z,12.07
2023-01-21T18:54:18.068Z,11.82
2023-01-21T18:56:45.783Z,12.30
2023-01-21T18:59:14.786Z,12.55
2023-01-21T19:01:42.446Z,13.10
2023-01-21T19:04:11.561Z,14.52
2023-01-21T19:06:38.152Z,14.48
2023-01-21T19:09:14.075Z,14.38
2023-01-21T19:11:40.635Z,14.15
2023-01-21T19:14:08.421Z,14.32
2023-01-21T19:16:35.292Z,17.05
2023-01-21T19:19:09.940Z,16.02
2023-01-21T19:21:37.583Z,18.05
2023-01-21T19:24:04.796Z,18.05
2023-01-21T19:26:31.401Z,20.73
2023-01-21T19:28:58.248Z,22.45
2023-01-21T19:31:25.335Z,20.33
2023-01-21T19:33:52.188Z,23.60
2023-01-21T19:36:20.567Z,21.17
2023-01-21T19:38:53.213Z,17.95
2023-01-21T19:41:19.899Z,28.50
2023-01-21T19:43:46.629Z,14.68
2023-01-21T19:46:13.652Z,12.00
2023-01-21T19:48:41.223Z,15.10
2023-01-21T19:51:08.551Z,15.07
2023-01-21T19:53:35.308Z,14.90
2023-01-21T19:56:03.363Z,16.02
2023-01-21T19:58:31.919Z,16.27
2023-01-21T20:00:58.571Z,22.58
2023-01-21T20:03:27.425Z,22.73
2023-01-21T20:06:01.881Z,25.10
2023-01-21T20:08:30.469Z,24.60
2023-01-21T20:10:57.125Z,24.45
2023-01-21T20:13:24.325Z,20.13
2023-01-21T20:15:52.347Z,17.20
2023-01-21T20:18:24.661Z,19.85
2023-01-21T20:20:53.110Z,19.30
2023-01-21T20:23:22.383Z,18.67
2023-01-21T20:25:53.566Z,19.23
2023-01-21T20:28:27.408Z,21.23
2023-01-21T20:30:55.198Z,20.35
2023-01-21T20:33:23.887Z,19.70
2023-01-21T20:35:55.857Z,17.65
2023-01-21T20:38:33.994Z,16.02
2023-01-21T20:41:01.860Z,17.70
2023-01-21T20:43:29.819Z,17.27
2023-01-21T20:46:06.775Z,17.30
2023-01-21T20:48:41.185Z,16.95
2023-01-21T20:51:08.059Z,17.92
2023-01-21T20:53:34.794Z,18.17
2023-01-21T20:56:20.322Z,19.23
2023-01-21T20:58:50.341Z,18.75
2023-01-21T21:01:19.424Z,18.02
2023-01-21T21:03:47.019Z,18.30
2023-01-21T21:06:19.653Z,18.95
2023-01-21T21:08:47.389Z,18.45
2023-01-21T21:11:15.625Z,18.20
2023-01-21T21:13:42.957Z,19.02
2023-01-21T21:16:22.299Z,18.27
2023-01-21T21:18:49.844Z,18.48
2023-01-21T21:21:17.886Z,19.75
2023-01-21T21:23:47.421Z,19.45
2023-01-21T21:26:29.362Z,19.35
2023-01-21T21:28:57.612Z,18.90
2023-01-21T21:31:25.908Z,20.45
2023-01-21T21:33:52.722Z,29.83
2023-01-21T21:36:21.839Z,42.67
2023-01-21T21:38:49.630Z,35.72
2023-01-21T21:41:38.933Z,41.80
2023-01-21T21:44:06.939Z,41.90
2023-01-21T21:46:52.793Z,37.63
2023-01-21T21:49:19.824Z,38.20
2023-01-21T21:51:46.534Z,38.75
2023-01-21T21:54:33.269Z,38.70
2023-01-21T21:57:00.325Z,35.08
2023-01-21T21:59:27.420Z,36.90
2023-01-21T22:01:54.859Z,38.92
2023-01-21T22:04:23.107Z,33.28
2023-01-21T22:06:49.820Z,30.63
2023-01-21T22:09:16.656Z,30.77
2023-01-21T22:11:43.413Z,30.48
2023-01-21T22:14:10.353Z,30.30
2023-01-21T22:16:37.077Z,35.67
2023-01-21T22:19:03.748Z,26.70
2023-01-21T22:21:33.550Z,25.38
2023-01-21T22:24:01.991Z,28.15
2023-01-21T22:26:29.970Z,28.40
2023-01-21T22:28:59.980Z,28.48
2023-01-21T22:31:28.970Z,26.77
2023-01-21T22:33:56.899Z,26.23
2023-01-21T22:36:25.748Z,26.63
2023-01-21T22:38:53.207Z,27.13
2023-01-21T22:41:22.791Z,27.30
2023-01-21T22:43:49.834Z,26.33
2023-01-21T22:46:25.449Z,28.30
2023-01-21T22:48:54.280Z,29.98
2023-01-21T22:51:22.246Z,28.27
2023-01-21T22:53:50.026Z,27.00
2023-01-21T22:56:19.030Z,26.63
2023-01-21T22:58:46.210Z,26.85
2023-01-21T23:01:31.338Z,25.67
2023-01-21T23:03:59.831Z,26.85
2023-01-21T23:06:26.674Z,25.58
2023-01-21T23:08:53.314Z,25.13
2023-01-21T23:11:20.607Z,24.52
2023-01-21T23:13:49.354Z,21.70
2023-01-21T23:16:18.678Z,20.08
2023-01-21T23:18:45.529Z,19.00
2023-01-21T23:21:18.131Z,18.92
2023-01-21T23:23:45.318Z,17.45
2023-01-21T23:26:13.563Z,17.50
2023-01-21T23:28:40.565Z,16.98
2023-01-21T23:31:12.211Z,16.55
2023-01-21T23:33:41.490Z,15.32
2023-01-21T23:36:11.292Z,14.70
2023-01-21T23:38:37.895Z,15.30
2023-01-21T23:41:07.185Z,13.95
2023-01-21T23:43:34.494Z,15.07
2023-01-21T23:46:01.107Z,14.15
2023-01-21T23:48:27.881Z,13.55
2023-01-21T23:50:54.541Z,14.77
2023-01-21T23:53:21.141Z,15.38
2023-01-21T23:55:47.773Z,16.17
2023-01-21T23:58:14.470Z,15.90
